createdAt,value
2022-08-24T11:24:13.126Z,34.02
2022-08-24T11:25:13.113Z,34.62
2022-08-24T11:26:13.095Z,34.99
2022-08-24T11:27:13.093Z,35.37
2022-08-24T11:28:13.085Z,35.87
2022-08-24T11:29:13.083Z,36.23
2022-08-24T11:30:13.057Z,36.69
2022-08-24T11:31:13.093Z,37.10
2022-08-24T11:32:13.034Z,37.18
2022-08-24T11:33:20.086Z,36.85
2022-08-24T11:34:13.016Z,36.05
2022-08-24T11:35:13.048Z,35.93
2022-08-24T11:36:12.997Z,36.51
2022-08-24T11:37:12.997Z,35.93
2022-08-24T11:38:12.998Z,36.17
2022-08-24T11:39:12.984Z,36.31
2022-08-24T11:40:13.042Z,36.34
2022-08-24T11:41:12.958Z,36.71
2022-08-24T11:42:12.958Z,37.12
2022-08-24T11:43:12.956Z,36.85
2022-08-24T11:44:12.939Z,36.69
2022-08-24T11:45:12.926Z,36.50
2022-08-24T11:46:12.973Z,36.29
2022-08-24T11:47:12.916Z,35.62
2022-08-24T11:48:12.894Z,35.77
2022-08-24T11:49:12.903Z,36.27
2022-08-24T11:50:12.889Z,36.85
2022-08-24T11:51:12.871Z,36.84
2022-08-24T11:52:12.863Z,37.36
2022-08-24T11:53:12.969Z,37.74
2022-08-24T11:54:12.846Z,37.28
2022-08-24T11:55:12.849Z,37.43
2022-08-24T11:56:14.489Z,37.60
2022-08-24T11:57:12.821Z,37.64
2022-08-24T11:58:12.843Z,37.60
2022-08-24T11:59:12.808Z,37.46
2022-08-24T12:00:12.801Z,37.37
2022-08-24T12:01:12.793Z,37.18
2022-08-24T12:02:12.958Z,37.39
2022-08-24T12:03:12.925Z,37.69
2022-08-24T12:04:12.774Z,37.60
2022-08-24T12:05:14.031Z,37.41
2022-08-24T12:06:12.767Z,36.83
2022-08-24T12:07:12.744Z,37.12
2022-08-24T12:08:12.749Z,37.70
2022-08-24T12:09:12.745Z,37.94
2022-08-24T12:10:12.732Z,38.49
2022-08-24T12:11:12.728Z,38.46
2022-08-24T12:12:12.717Z,38.81
2022-08-24T12:13:12.714Z,39.17
2022-08-24T12:14:12.695Z,39.26
2022-08-24T12:15:12.689Z,39.38
2022-08-24T12:16:12.708Z,39.44
2022-08-24T12:17:12.683Z,39.30
2022-08-24T12:18:12.676Z,38.30
2022-08-24T12:19:12.664Z,38.81
2022-08-24T12:20:12.657Z,38.50
2022-08-24T12:21:12.901Z,38.25
2022-08-24T12:22:12.635Z,38.34
2022-08-24T12:23:12.639Z,38.69
2022-08-24T12:24:12.621Z,39.21
2022-08-24T12:25:12.616Z,39.44
2022-08-24T12:26:12.619Z,39.73
2022-08-24T12:27:12.611Z,39.91
2022-08-24T12:28:12.602Z,39.63
2022-08-24T12:29:12.585Z,39.77
2022-08-24T12:30:12.580Z,39.75
2022-08-24T12:31:12.628Z,40.01
2022-08-24T12:32:12.574Z,39.51
2022-08-24T12:33:12.575Z,39.30
2022-08-24T12:34:12.549Z,39.33
2022-08-24T12:35:12.541Z,39.26
2022-08-24T12:36:12.553Z,38.98
2022-08-24T12:37:16.337Z,39.17
2022-08-24T12:38:12.536Z,39.26
2022-08-24T12:39:12.525Z,39.52
2022-08-24T12:40:12.558Z,39.28
2022-08-24T12:41:19.024Z,39.70
2022-08-24T12:42:16.797Z,39.64
2022-08-24T12:43:12.530Z,39.03
2022-08-24T12:44:12.493Z,39.50
2022-08-24T12:45:12.482Z,39.73
2022-08-24T12:46:12.542Z,39.57
2022-08-24T12:47:13.427Z,39.50
2022-08-24T12:48:12.488Z,39.63
2022-08-24T12:49:12.458Z,38.74
2022-08-24T12:50:12.445Z,38.75
2022-08-24T12:51:12.445Z,39.07
2022-08-24T12:52:12.439Z,39.17
2022-08-24T12:53:14.136Z,39.03
2022-08-24T12:54:12.419Z,39.06
2022-08-24T12:55:12.407Z,38.83
2022-08-24T12:56:12.405Z,39.23
2022-08-24T12:57:12.411Z,39.62
2022-08-24T12:59:12.386Z,38.96
2022-08-24T13:00:12.378Z,39.22
2022-08-24T13:01:12.469Z,39.40
2022-08-24T13:02:12.416Z,39.50
2022-08-24T13:03:12.382Z,39.41
2022-08-24T13:04:12.365Z,39.50
2022-08-24T13:05:12.357Z,39.48
2022-08-24T13:06:12.345Z,39.81
2022-08-24T13:07:12.346Z,39.51
2022-08-24T13:08:12.354Z,39.26
2022-08-24T13:09:12.336Z,38.87
2022-08-24T13:10:12.336Z,39.64
2022-08-24T13:11:12.320Z,39.18
2022-08-24T13:12:12.310Z,38.90
2022-08-24T13:13:12.335Z,39.57
2022-08-24T13:14:12.300Z,39.78
2022-08-24T13:15:12.298Z,39.72
2022-08-24T13:16:12.325Z,40.04
2022-08-24T13:17:12.288Z,39.97
2022-08-24T13:18:12.291Z,40.25
2022-08-24T13:19:12.271Z,39.98
2022-08-24T13:20:12.285Z,39.94
2022-08-24T13:21:12.259Z,39.97
2022-08-24T13:22:12.269Z,40.26
2022-08-24T13:23:12.263Z,40.32
2022-08-24T13:24:15.599Z,40.35
2022-08-24T13:25:12.239Z,40.48
2022-08-24T13:26:12.232Z,40.39
2022-08-24T13:27:12.237Z,40.89
2022-08-24T13:28:12.267Z,40.94
2022-08-24T13:29:12.226Z,40.34
2022-08-24T13:30:12.253Z,40.20
2022-08-24T13:31:12.240Z,40.27
2022-08-24T13:32:12.211Z,39.75
2022-08-24T13:33:12.205Z,40.00
2022-08-24T13:34:12.215Z,40.08
2022-08-24T13:35:12.200Z,40.22
2022-08-24T13:36:12.200Z,40.18
2022-08-24T13:37:12.183Z,40.10
2022-08-24T13:38:12.203Z,40.08
2022-08-24T13:39:12.184Z,40.31
2022-08-24T13:40:12.273Z,40.42
2022-08-24T13:41:12.165Z,40.76
2022-08-24T13:42:12.172Z,40.42
2022-08-24T13:43:12.218Z,40.76
2022-08-24T13:44:12.154Z,40.01
2022-08-24T13:45:12.149Z,39.60
2022-08-24T13:46:13.355Z,38.90
2022-08-24T13:47:12.144Z,38.47
2022-08-24T13:48:12.150Z,38.75
2022-08-24T13:49:12.137Z,39.10
2022-08-24T13:50:12.151Z,38.74
2022-08-24T13:51:12.129Z,38.98
2022-08-24T13:52:12.126Z,39.29
2022-08-24T13:53:12.145Z,39.32
2022-08-24T13:54:19.992Z,39.38
2022-08-24T13:55:12.121Z,39.17
2022-08-24T13:56:12.110Z,39.04
2022-08-24T13:57:12.105Z,39.57
2022-08-24T13:58:12.124Z,39.09
2022-08-24T14:08:17.320Z,35.53
2022-08-24T14:09:17.307Z,36.46
2022-08-24T14:10:17.292Z,37.03
2022-08-24T14:11:17.304Z,37.85
2022-08-24T14:12:17.277Z,38.79
2022-08-24T14:13:17.296Z,39.33
2022-08-24T14:14:17.268Z,38.87
2022-08-24T14:15:17.276Z,39.07
2022-08-24T14:16:17.284Z,39.73
2022-08-24T14:17:19.362Z,40.29
2022-08-24T14:18:17.262Z,40.50
2022-08-24T14:19:17.245Z,40.57
2022-08-24T14:20:21.986Z,40.70
2022-08-24T14:21:17.981Z,40.74
2022-08-24T14:22:17.240Z,40.29
2022-08-24T14:23:17.241Z,40.48
2022-08-24T14:24:17.225Z,40.18
2022-08-24T14:25:17.223Z,39.17
2022-08-24T14:26:17.225Z,39.07
2022-08-24T14:27:17.224Z,39.09
2022-08-24T14:28:17.224Z,39.43
2022-08-24T14:29:17.229Z,39.66
2022-08-24T14:30:17.206Z,40.19
2022-08-24T14:31:17.252Z,40.45
2022-08-24T14:32:17.197Z,39.98
2022-08-24T14:33:17.244Z,38.93
2022-08-24T14:34:17.205Z,38.63
2022-08-24T14:35:17.203Z,39.10
2022-08-24T14:36:17.205Z,39.17
2022-08-24T14:37:17.191Z,39.57
2022-08-24T14:38:17.196Z,40.03
2022-08-24T14:39:17.208Z,40.87
2022-08-24T14:40:17.252Z,41.21
2022-08-24T14:41:17.183Z,41.82
2022-08-24T14:42:17.188Z,41.62
2022-08-24T14:43:20.267Z,40.57
2022-08-24T14:44:17.179Z,40.70
2022-08-24T14:45:17.185Z,40.95
2022-08-24T14:46:17.253Z,41.49
2022-08-24T14:47:17.173Z,41.69
2022-08-24T14:48:17.194Z,41.78
2022-08-24T14:49:17.171Z,42.17
2022-08-24T14:50:17.178Z,41.13
2022-08-24T14:51:17.170Z,40.92
2022-08-24T14:52:17.178Z,40.70
2022-08-24T14:53:17.190Z,40.10
2022-08-24T14:54:17.178Z,39.48
2022-08-24T14:55:17.172Z,39.06
2022-08-24T14:56:17.178Z,39.32
2022-08-24T14:57:17.181Z,39.75
2022-08-24T14:58:17.179Z,39.88
2022-08-24T14:59:17.180Z,40.53
2022-08-24T15:00:17.168Z,40.76
2022-08-24T15:01:17.243Z,40.35
2022-08-24T15:02:17.168Z,40.60
2022-08-24T15:03:17.193Z,40.69
2022-08-24T15:04:17.217Z,40.87
2022-08-24T15:05:17.210Z,41.32
2022-08-24T15:06:26.919Z,40.79
2022-08-24T15:07:17.191Z,39.70
2022-08-24T15:08:18.192Z,38.06
2022-08-24T15:09:17.167Z,37.86
2022-08-24T15:10:17.168Z,38.16
2022-08-24T15:11:17.182Z,37.59
2022-08-24T15:12:17.185Z,37.89
2022-08-24T15:13:17.193Z,37.12
2022-08-24T15:14:19.888Z,36.80
2022-08-24T15:15:17.177Z,37.18
2022-08-24T15:16:17.205Z,36.53
2022-08-24T15:17:17.181Z,36.00
2022-08-24T15:18:17.194Z,36.13
2022-08-24T15:19:17.178Z,36.64
2022-08-24T15:20:17.179Z,37.31
2022-08-24T15:21:17.173Z,37.60
2022-08-24T15:22:17.174Z,38.15
2022-08-24T15:23:17.185Z,38.74
2022-08-24T15:24:17.192Z,39.21
2022-08-24T15:25:19.191Z,39.89
2022-08-24T15:26:17.165Z,40.25
2022-08-24T15:27:17.170Z,40.26
2022-08-24T15:28:17.175Z,40.72
2022-08-24T15:29:17.163Z,41.13
2022-08-24T15:30:17.158Z,41.48
2022-08-24T15:31:17.209Z,41.89
2022-08-24T15:32:17.157Z,41.58
2022-08-24T15:33:19.350Z,41.86
2022-08-24T15:34:17.146Z,41.18
2022-08-24T15:35:17.157Z,39.25
2022-08-24T15:36:17.151Z,39.21
2022-08-24T15:37:17.148Z,38.90
2022-08-24T15:38:17.963Z,38.38
2022-08-24T15:39:17.144Z,38.16
2022-08-24T15:40:17.215Z,37.78
2022-08-24T15:41:17.145Z,37.91
2022-08-24T15:42:17.153Z,37.50
2022-08-24T15:43:17.169Z,37.67
2022-08-24T15:44:21.311Z,37.41
2022-08-24T15:45:17.154Z,36.66
2022-08-24T15:46:17.227Z,36.12
2022-08-24T15:56:32.405Z,35.02
2022-08-24T15:57:32.405Z,35.29
2022-08-24T16:55:23.070Z,31.73
2022-08-24T16:56:23.057Z,31.81
2022-08-24T16:59:43.614Z,32.28
2022-08-24T17:00:43.619Z,32.11
2022-08-24T17:01:43.662Z,32.15
2022-08-24T17:02:43.633Z,32.21
